Aviation Digital Data Service (ADDS)

Output produced by METARs form (0640 UTC 28 July 2016)
found at http://aviationweather.gov/adds/metars/
 
KACY 280524Z 2806/2906 VRB03KT P6SM SCT250 
     TEMPO 2808/2812 4SM BR 
     FM281400 16004KT P6SM SCT250 
     FM281700 17008KT P6SM SCT050 
     FM282300 17006KT P6SM BKN050 
     TEMPO 2903/2905 -SHRA OVC035 
     FM290500 15006KT 4SM -SHRA BR OVC035